x

Central Caribbean - 210 Nm Sse Of Kingston, Jamaica (42058) Wave Buoy

8:50pm - Thu 30th Jul 2015 All times are EST. -5 hours from GMT.

  • Sig Wave height 5.6ft
  • Swell Direction
  • Peak Period 8s
  • Average Period 5s
  • Wind
    16mph, 20mph gusts
  • Sea Temp 81°f
  • Air Temp 81°f
  • Sea Pressure 1014.1mb
  • Central Caribbean - 210 Nm Sse Of Kingston, Jamaica
  • Central Caribbean - 210 Nm Sse Of Kingston, Jamaica

More Historic Weather Station data

Upgrade to MSW Pro to gain access to the past 30 days of data for over 8000 Wavebouys and Weather Stations around the globe.

Join Pro

Comparision Forecast

View Surf forecast
   
Thu 07/30 8:50pm 5.5ft 8s 5s 16 20 mph 1014.1mb 81f 81f
7:50pm 5.5ft 7s 5s 16 18 mph 1013.7mb 81f 82f
6:50pm 6ft 8s 5s 16 18 mph 1012.9mb 81f 82f
5:50pm 6ft 7s 5s 16 18 mph 1012.8mb 81f 82f
4:50pm 6ft 7s 5s 16 20 mph 1012.4mb 81f 82f
3:50pm 6ft 7s 6s 16 18 mph 1012.6mb 81f 82f
2:50pm 6.5ft 7s 5s 18 22 mph 1012.6mb 81f 82f
1:50pm 6.5ft 7s 6s 18 20 mph 1013.1mb 81f 82f
12:50pm 6.5ft 8s 6s 20 22 mph 1013.6mb 81f 82f
11:50am 6ft 8s  -  18 20 mph 1014.5mb 81f 82f
10:50am 6.5ft 6s 6s 20 25 mph 1014.7mb 81f 82f
9:50am 7ft 8s 6s 20 25 mph 1014.5mb 80f 82f
8:50am 6ft 8s 6s 20 25 mph 1014.4mb 80f 81f
7:50am 6.5ft 8s 6s 20 25 mph 1014.4mb 80f 81f
6:50am 6.5ft 8s 6s 20 22 mph 1014.1mb 80f 81f
5:50am 6ft 8s 6s 20 25 mph 1013.5mb 80f 81f
4:50am 7ft 7s 6s 18 22 mph 1013.1mb 80f 81f
3:50am 7ft 8s 6s 18 20 mph 1013.1mb 80f 81f
2:50am 6ft 8s 6s 18 22 mph 1013.1mb 80f 81f
1:50am 7ft 8s 6s 18 20 mph 1013.4mb 80f 81f
12:50am 6.5ft 8s 6s 18 22 mph 1014mb 80f 81f
Wed 07/29 11:50pm 7ft 8s 6s 20 25 mph 1014.2mb 80f 81f
10:50pm 7.5ft 8s 6s 20 25 mph 1014.4mb 80f 81f
9:50pm 7.5ft 8s 6s 18 22 mph 1014.3mb 80f 81f
8:50pm 8ft 8s 6s 20 25 mph 1014mb 80f 82f
7:50pm 8.5ft 9s 6s 18 22 mph 1013.4mb 80f 82f
6:50pm 8ft 8s 6s 20 25 mph 1012.8mb 80f 82f
5:50pm 9ft 8s 6s 20 25 mph 1012.2mb 80f 82f
4:50pm 10ft 9s 6s 22 27 mph 1011.6mb 80f 82f
3:50pm 9ft 8s 6s 22 27 mph 1011.8mb 80f 82f
2:50pm 9ft 8s 6s 25 29 mph 1011.5mb 80f 82f
1:50pm 9ft 8s 6s 22 27 mph 1012.2mb 80f 82f
12:50pm 9.5ft 8s 6s 25 29 mph 1012.7mb 80f 82f
11:50am 10.5ft 9s 7s 25 29 mph 1013mb 80f 82f
10:50am 9ft 8s 6s 25 31 mph 1013.3mb 80f 82f
9:50am 10ft 8s 6s 25 29 mph 1013.3mb 80f 82f
8:50am 9.5ft 8s 6s 25 29 mph 1013.4mb 80f 82f
7:50am 9ft 8s 6s 22 29 mph 1013.1mb 80f 82f
6:50am 8ft 8s 6s 25 29 mph 1012.8mb 80f 81f
5:50am 9ft 8s 6s 22 29 mph 1012.6mb 80f 81f
4:50am 8.5ft 8s 6s 20 25 mph 1012.1mb 80f 81f
3:50am 9ft 8s 6s 20 25 mph 1012.2mb 80f 81f
2:50am 8.5ft 8s 6s 25 27 mph 1012.1mb 80f 81f
1:50am 9ft 8s 6s 25 29 mph 1012.1mb 80f 81f
12:50am 9ft 8s 6s 22 27 mph 1012.2mb 80f 81f
Tue 07/28 11:50pm 8.5ft 8s 6s 22 27 mph 1012.9mb 80f 82f
10:50pm 8ft 8s 6s 22 29 mph 1012.7mb 80f 81f
9:50pm 9ft 8s 6s 25 29 mph 1012.5mb 80f 82f
8:50pm 8.5ft 8s 6s 22 27 mph 1012.2mb 80f 82f
7:50pm 9ft 8s 6s 22 27 mph 1011.8mb 80f 81f
6:50pm 8.5ft 8s 6s 20 25 mph 1011.4mb 80f 81f
5:50pm 8ft 8s 6s 20 25 mph 1010.9mb 80f 82f
4:50pm 8ft 8s 6s 22 27 mph 1010.7mb 81f 82f
3:50pm 8ft 8s 6s 22 27 mph 1010.4mb 81f 82f
2:50pm 9ft 8s 6s 20 27 mph 1010.7mb 80f 82f
1:50pm 8ft 8s 6s 22 27 mph 1011mb 80f 82f
12:50pm 8.5ft 8s 6s 22 27 mph 1011.8mb 80f 82f
11:50am 9.5ft 8s 6s 20 25 mph 1012.7mb 80f 82f
10:50am 9.5ft 8s 6s 20 25 mph 1013.2mb 80f 82f
9:50am 9.5ft 8s 7s 20 25 mph 1013.2mb 80f 82f
8:50am 10ft 9s 7s 20 25 mph 1013.3mb 80f 81f
7:50am 10.5ft 8s 7s 22 25 mph 1013.1mb 80f 82f
6:50am 10ft 9s 7s 20 27 mph 1012.8mb 80f 81f
5:50am 10ft 9s 7s 22 27 mph 1012.2mb 80f 81f
4:50am 10ft 8s 6s 22 27 mph 1011.9mb 80f 81f
3:50am 10ft 9s 6s 22 29 mph 1011.6mb 80f 81f
2:50am 11ft 9s 7s 22 29 mph 1011.6mb 80f 81f
1:50am 10.5ft 9s 7s 22 29 mph 1012mb 80f 81f
12:50am 9.5ft 8s 7s 22 27 mph 1012.2mb 80f 81f
Mon 07/27 11:50pm 10ft 9s 7s 22 27 mph 1012.5mb 80f 81f
10:50pm 10ft 9s 7s 22 29 mph 1012.6mb 80f 81f
9:50pm 10ft 9s 7s 22 27 mph 1012mb 80f 81f
8:50pm 9ft 9s 7s 25 29 mph 1011.8mb 80f 81f
7:50pm 10ft 9s 7s 22 27 mph 1011.5mb 80f 81f
6:50pm 10.5ft 8s 7s 22 27 mph 1011.2mb 80f 81f
5:50pm 10ft 8s 7s 22 27 mph 1011.1mb 80f 82f
4:50pm 12ft 9s 7s 22 27 mph 1010.7mb 80f 82f
3:50pm 11ft 9s 7s 25 29 mph 1010.6mb 80f 82f
2:50pm 10.5ft 9s 7s 25 29 mph 1011.1mb 80f 82f
1:50pm 11ft 9s 7s 25 29 mph 1011.4mb 80f 82f
12:50pm 10.5ft 9s 7s 25 29 mph 1012.2mb 80f 82f
11:50am 12ft 9s 7s 25 31 mph 1012.7mb 80f 82f
10:50am 12ft 9s 7s 27 34 mph 1012.8mb 80f 82f
9:50am 12ft 8s 7s 27 34 mph 1013mb 80f 82f
8:50am 11ft 9s 7s 27 34 mph 1012.9mb 80f 82f
7:50am 11ft 8s 7s 27 36 mph 1012.5mb 80f 82f
6:50am 10ft 8s 6s 27 31 mph 1012.5mb 80f 82f
5:50am 9.5ft 8s 6s 25 31 mph 1011.9mb 80f 81f
4:50am 9.5ft 8s 6s 27 31 mph 1011.5mb 80f 81f
3:50am 9ft 8s 6s 27 31 mph 1011.1mb 80f 81f